sensor_id;sensor_type;location;lat;lon;timestamp;P1;durP1;ratioP1;P2;durP2;ratioP2
73959;SDS011;62316;48.920;2.342;2023-06-14T04:02:50;21.50;;;18.25;;
73959;SDS011;62316;48.920;2.342;2023-06-14T04:05:22;22.00;;;19.75;;
73959;SDS011;62316;48.920;2.342;2023-06-14T04:07:51;19.75;;;19.75;;
73959;SDS011;62316;48.920;2.342;2023-06-14T04:10:17;22.25;;;20.00;;
73959;SDS011;62316;48.920;2.342;2023-06-14T04:12:42;20.00;;;20.00;;
73959;SDS011;62316;48.920;2.342;2023-06-14T04:15:08;17.75;;;17.00;;
73959;SDS011;62316;48.920;2.342;2023-06-14T04:17:34;21.75;;;21.00;;
73959;SDS011;62316;48.920;2.342;2023-06-14T04:20:00;21.50;;;20.25;;
73959;SDS011;62316;48.920;2.342;2023-06-14T04:22:27;23.00;;;20.75;;
73959;SDS011;62316;48.920;2.342;2023-06-14T04:24:55;26.50;;;22.50;;
73959;SDS011;62316;48.920;2.342;2023-06-14T04:27:24;20.25;;;20.00;;
73959;SDS011;62316;48.920;2.342;2023-06-14T04:29:53;19.00;;;17.75;;
73959;SDS011;62316;48.920;2.342;2023-06-14T04:32:24;26.50;;;24.50;;
73959;SDS011;62316;48.920;2.342;2023-06-14T04:34:54;26.50;;;25.50;;
73959;SDS011;62316;48.920;2.342;2023-06-14T04:37:24;23.25;;;20.50;;
73959;SDS011;62316;48.920;2.342;2023-06-14T04:39:49;25.25;;;22.50;;
73959;SDS011;62316;48.920;2.342;2023-06-14T04:42:15;22.50;;;22.50;;
73959;SDS011;62316;48.920;2.342;2023-06-14T04:44:41;31.00;;;28.50;;
73959;SDS011;62316;48.920;2.342;2023-06-14T04:47:10;24.00;;;22.00;;
73959;SDS011;62316;48.920;2.342;2023-06-14T04:49:37;27.00;;;24.75;;
73959;SDS011;62316;48.920;2.342;2023-06-14T04:52:03;27.75;;;25.75;;
73959;SDS011;62316;48.920;2.342;2023-06-14T04:54:29;31.75;;;28.50;;
73959;SDS011;62316;48.920;2.342;2023-06-14T04:56:56;22.50;;;21.50;;
73959;SDS011;62316;48.920;2.342;2023-06-14T04:59:22;23.50;;;22.50;;
73959;SDS011;62316;48.920;2.342;2023-06-14T05:01:48;23.00;;;21.00;;
73959;SDS011;62316;48.920;2.342;2023-06-14T05:04:16;24.75;;;23.50;;
73959;SDS011;62316;48.920;2.342;2023-06-14T05:06:42;24.75;;;21.50;;
73959;SDS011;62316;48.920;2.342;2023-06-14T05:09:13;19.25;;;19.25;;
73959;SDS011;62316;48.920;2.342;2023-06-14T05:11:39;23.50;;;23.00;;
73959;SDS011;62316;48.920;2.342;2023-06-14T05:14:04;27.25;;;23.50;;
73959;SDS011;62316;48.920;2.342;2023-06-14T05:16:31;24.75;;;23.25;;
73959;SDS011;62316;48.920;2.342;2023-06-14T05:18:56;20.75;;;19.50;;
73959;SDS011;62316;48.920;2.342;2023-06-14T05:21:22;23.00;;;21.50;;
73959;SDS011;62316;48.920;2.342;2023-06-14T05:23:47;23.75;;;23.75;;
73959;SDS011;62316;48.920;2.342;2023-06-14T05:26:13;23.00;;;22.75;;
73959;SDS011;62316;48.920;2.342;2023-06-14T05:28:38;23.25;;;20.25;;
73959;SDS011;62316;48.920;2.342;2023-06-14T05:31:04;19.00;;;18.75;;
73959;SDS011;62316;48.920;2.342;2023-06-14T05:33:29;20.75;;;18.75;;
73959;SDS011;62316;48.920;2.342;2023-06-14T05:35:55;23.50;;;22.00;;
73959;SDS011;62316;48.920;2.342;2023-06-14T05:38:20;25.00;;;19.00;;
73959;SDS011;62316;48.920;2.342;2023-06-14T05:40:46;28.25;;;26.00;;
73959;SDS011;62316;48.920;2.342;2023-06-14T05:43:12;25.50;;;22.50;;
73959;SDS011;62316;48.920;2.342;2023-06-14T05:45:37;20.50;;;19.25;;
73959;SDS011;62316;48.920;2.342;2023-06-14T05:48:03;21.75;;;20.25;;
73959;SDS011;62316;48.920;2.342;2023-06-14T05:50:28;16.75;;;15.75;;
73959;SDS011;62316;48.920;2.342;2023-06-14T05:52:54;19.25;;;16.25;;
73959;SDS011;62316;48.920;2.342;2023-06-14T05:55:19;24.25;;;22.00;;
73959;SDS011;62316;48.920;2.342;2023-06-14T05:57:45;28.00;;;25.50;;
73959;SDS011;62316;48.920;2.342;2023-06-14T06:00:11;20.50;;;20.50;;
73959;SDS011;62316;48.920;2.342;2023-06-14T06:02:39;28.00;;;26.25;;
73959;SDS011;62316;48.920;2.342;2023-06-14T06:05:12;27.25;;;25.75;;
73959;SDS011;62316;48.920;2.342;2023-06-14T06:07:38;24.75;;;21.50;;
73959;SDS011;62316;48.920;2.342;2023-06-14T06:10:09;29.50;;;25.75;;
73959;SDS011;62316;48.920;2.342;2023-06-14T06:12:35;23.00;;;19.00;;
73959;SDS011;62316;48.920;2.342;2023-06-14T06:15:03;20.75;;;19.50;;
73959;SDS011;62316;48.920;2.342;2023-06-14T06:17:29;26.75;;;26.00;;
73959;SDS011;62316;48.920;2.342;2023-06-14T06:20:12;22.00;;;21.00;;
73959;SDS011;62316;48.920;2.342;2023-06-14T06:22:44;27.25;;;21.00;;
73959;SDS011;62316;48.920;2.342;2023-06-14T06:25:09;21.50;;;19.25;;
73959;SDS011;62316;48.920;2.342;2023-06-14T06:27:34;23.25;;;23.25;;
73959;SDS011;62316;48.920;2.342;2023-06-14T06:30:02;27.50;;;23.75;;
73959;SDS011;62316;48.920;2.342;2023-06-14T06:32:28;24.00;;;20.75;;
73959;SDS011;62316;48.920;2.342;2023-06-14T06:34:53;20.75;;;17.00;;
73959;SDS011;62316;48.920;2.342;2023-06-14T06:37:19;26.50;;;22.75;;
73959;SDS011;62316;48.920;2.342;2023-06-14T06:39:44;25.50;;;24.25;;
73959;SDS011;62316;48.920;2.342;2023-06-14T06:42:10;22.50;;;22.00;;
73959;SDS011;62316;48.920;2.342;2023-06-14T06:44:35;22.75;;;22.75;;
73959;SDS011;62316;48.920;2.342;2023-06-14T06:47:01;20.75;;;20.00;;
73959;SDS011;62316;48.920;2.342;2023-06-14T06:49:27;23.25;;;21.25;;
73959;SDS011;62316;48.920;2.342;2023-06-14T06:52:02;22.00;;;20.25;;
73959;SDS011;62316;48.920;2.342;2023-06-14T06:54:31;19.50;;;18.25;;
73959;SDS011;62316;48.920;2.342;2023-06-14T06:56:57;26.25;;;21.25;;
73959;SDS011;62316;48.920;2.342;2023-06-14T06:59:23;20.75;;;19.25;;
73959;SDS011;62316;48.920;2.342;2023-06-14T07:01:49;17.25;;;16.00;;
73959;SDS011;62316;48.920;2.342;2023-06-14T07:04:14;22.25;;;20.00;;
73959;SDS011;62316;48.920;2.342;2023-06-14T07:06:41;19.75;;;17.50;;
73959;SDS011;62316;48.920;2.342;2023-06-14T07:09:15;24.25;;;20.75;;
73959;SDS011;62316;48.920;2.342;2023-06-14T07:11:42;22.50;;;22.50;;
73959;SDS011;62316;48.920;2.342;2023-06-14T07:14:08;19.50;;;16.50;;
73959;SDS011;62316;48.920;2.342;2023-06-14T07:16:33;17.00;;;17.00;;
73959;SDS011;62316;48.920;2.342;2023-06-14T07:18:59;19.75;;;17.25;;
73959;SDS011;62316;48.920;2.342;2023-06-14T07:21:25;20.00;;;20.00;;
73959;SDS011;62316;48.920;2.342;2023-06-14T07:23:51;20.25;;;19.00;;
73959;SDS011;62316;48.920;2.342;2023-06-14T07:26:17;19.75;;;19.75;;
73959;SDS011;62316;48.920;2.342;2023-06-14T07:28:43;16.25;;;14.00;;
73959;SDS011;62316;48.920;2.342;2023-06-14T07:31:10;21.50;;;17.75;;
73959;SDS011;62316;48.920;2.342;2023-06-14T07:33:35;27.75;;;23.00;;
73959;SDS011;62316;48.920;2.342;2023-06-14T07:36:01;22.00;;;18.50;;
73959;SDS011;62316;48.920;2.342;2023-06-14T07:38:26;22.25;;;18.75;;
73959;SDS011;62316;48.920;2.342;2023-06-14T07:40:52;20.25;;;18.00;;
73959;SDS011;62316;48.920;2.342;2023-06-14T07:43:17;19.50;;;19.50;;
73959;SDS011;62316;48.920;2.342;2023-06-14T07:45:43;14.00;;;14.00;;
73959;SDS011;62316;48.920;2.342;2023-06-14T07:48:12;22.50;;;21.25;;
73959;SDS011;62316;48.920;2.342;2023-06-14T07:50:38;23.00;;;20.25;;
73959;SDS011;62316;48.920;2.342;2023-06-14T07:53:03;22.25;;;18.00;;
73959;SDS011;62316;48.920;2.342;2023-06-14T07:55:29;30.25;;;26.00;;
73959;SDS011;62316;48.920;2.342;2023-06-14T07:58:07;22.25;;;19.00;;
73959;SDS011;62316;48.920;2.342;2023-06-14T08:00:43;19.75;;;19.75;;
73959;SDS011;62316;48.920;2.342;2023-06-14T08:03:24;23.25;;;20.75;;
73959;SDS011;62316;48.920;2.342;2023-06-14T08:06:01;24.25;;;20.00;;
73959;SDS011;62316;48.920;2.342;2023-06-14T08:08:31;21.75;;;19.25;;
73959;SDS011;62316;48.920;2.342;2023-06-14T08:10:58;23.75;;;20.25;;
73959;SDS011;62316;48.920;2.342;2023-06-14T08:13:24;19.75;;;17.75;;
73959;SDS011;62316;48.920;2.342;2023-06-14T08:15:49;21.00;;;18.25;;
73959;SDS011;62316;48.920;2.342;2023-06-14T08:18:15;27.50;;;22.75;;
73959;SDS011;62316;48.920;2.342;2023-06-14T08:20:40;25.75;;;19.00;;
73959;SDS011;62316;48.920;2.342;2023-06-14T08:23:06;16.75;;;16.75;;
73959;SDS011;62316;48.920;2.342;2023-06-14T08:25:32;17.50;;;14.75;;
73959;SDS011;62316;48.920;2.342;2023-06-14T08:27:58;18.25;;;15.00;;
73959;SDS011;62316;48.920;2.342;2023-06-14T08:30:26;27.00;;;23.75;;
73959;SDS011;62316;48.920;2.342;2023-06-14T08:33:02;20.50;;;20.50;;
73959;SDS011;62316;48.920;2.342;2023-06-14T08:35:40;21.00;;;19.75;;
73959;SDS011;62316;48.920;2.342;2023-06-14T08:38:05;21.50;;;20.00;;
73959;SDS011;62316;48.920;2.342;2023-06-14T08:40:31;22.75;;;22.25;;
73959;SDS011;62316;48.920;2.342;2023-06-14T08:42:56;19.50;;;18.50;;
73959;SDS011;62316;48.920;2.342;2023-06-14T08:45:22;18.50;;;16.75;;
73959;SDS011;62316;48.920;2.342;2023-06-14T08:47:48;24.50;;;22.00;;
73959;SDS011;62316;48.920;2.342;2023-06-14T08:50:22;16.25;;;15.25;;
73959;SDS011;62316;48.920;2.342;2023-06-14T08:52:50;17.75;;;16.00;;
73959;SDS011;62316;48.920;2.342;2023-06-14T08:55:19;15.75;;;14.00;;
73959;SDS011;62316;48.920;2.342;2023-06-14T09:01:03;18.75;;;17.50;;
73959;SDS011;62316;48.920;2.342;2023-06-14T09:03:28;11.00;;;11.00;;
73959;SDS011;62316;48.920;2.342;2023-06-14T09:05:56;18.25;;;16.25;;
73959;SDS011;62316;48.920;2.342;2023-06-14T09:08:23;17.00;;;15.75;;
73959;SDS011;62316;48.920;2.342;2023-06-14T09:10:50;22.75;;;19.00;;
73959;SDS011;62316;48.920;2.342;2023-06-14T09:13:15;21.00;;;21.00;;
73959;SDS011;62316;48.920;2.342;2023-06-14T09:15:41;16.25;;;13.75;;
73959;SDS011;62316;48.920;2.342;2023-06-14T09:18:07;17.75;;;15.25;;
73959;SDS011;62316;48.920;2.342;2023-06-14T09:20:32;17.25;;;14.50;;
73959;SDS011;62316;48.920;2.342;2023-06-14T09:22:58;15.50;;;15.50;;
73959;SDS011;62316;48.920;2.342;2023-06-14T09:25:24;16.00;;;14.25;;
73959;SDS011;62316;48.920;2.342;2023-06-14T09:27:51;13.00;;;13.00;;
73959;SDS011;62316;48.920;2.342;2023-06-14T09:30:19;19.00;;;17.75;;
73959;SDS011;62316;48.920;2.342;2023-06-14T09:32:45;19.25;;;16.25;;
73959;SDS011;62316;48.920;2.342;2023-06-14T09:35:11;14.00;;;13.50;;
73959;SDS011;62316;48.920;2.342;2023-06-14T09:37:36;17.25;;;14.75;;
73959;SDS011;62316;48.920;2.342;2023-06-14T09:40:03;16.00;;;16.00;;
73959;SDS011;62316;48.920;2.342;2023-06-14T09:42:29;15.25;;;12.75;;
73959;SDS011;62316;48.920;2.342;2023-06-14T09:44:55;12.50;;;12.50;;
73959;SDS011;62316;48.920;2.342;2023-06-14T09:47:22;16.25;;;16.25;;
73959;SDS011;62316;48.920;2.342;2023-06-14T09:49:48;15.75;;;13.50;;
73959;SDS011;62316;48.920;2.342;2023-06-14T09:52:15;17.50;;;17.00;;
73959;SDS011;62316;48.920;2.342;2023-06-14T09:54:48;12.50;;;12.50;;
73959;SDS011;62316;48.920;2.342;2023-06-14T09:57:15;14.00;;;13.25;;
73959;SDS011;62316;48.920;2.342;2023-06-14T09:59:43;16.00;;;12.50;;
73959;SDS011;62316;48.920;2.342;2023-06-14T10:02:35;16.00;;;15.00;;
73959;SDS011;62316;48.920;2.342;2023-06-14T10:05:03;15.00;;;14.00;;
73959;SDS011;62316;48.920;2.342;2023-06-14T10:07:32;7.33;;;7.33;;
73959;SDS011;62316;48.920;2.342;2023-06-14T10:10:09;15.50;;;14.75;;
73959;SDS011;62316;48.920;2.342;2023-06-14T10:12:52;17.50;;;17.50;;
73959;SDS011;62316;48.920;2.342;2023-06-14T10:18:53;15.50;;;14.25;;
73959;SDS011;62316;48.920;2.342;2023-06-14T10:24:23;15.50;;;14.25;;
73959;SDS011;62316;48.920;2.342;2023-06-14T10:26:56;18.75;;;17.75;;
73959;SDS011;62316;48.920;2.342;2023-06-14T10:29:23;16.75;;;15.75;;
73959;SDS011;62316;48.920;2.342;2023-06-14T10:31:50;14.00;;;13.00;;
73959;SDS011;62316;48.920;2.342;2023-06-14T10:34:23;14.00;;;12.00;;
73959;SDS011;62316;48.920;2.342;2023-06-14T10:37:06;13.75;;;13.75;;
73959;SDS011;62316;48.920;2.342;2023-06-14T10:39:37;16.25;;;13.25;;
73959;SDS011;62316;48.920;2.342;2023-06-14T10:42:07;12.00;;;12.00;;
73959;SDS011;62316;48.920;2.342;2023-06-14T10:44:35;15.00;;;13.75;;
73959;SDS011;62316;48.920;2.342;2023-06-14T10:47:26;21.00;;;17.25;;
73959;SDS011;62316;48.920;2.342;2023-06-14T10:49:57;16.50;;;15.75;;
73959;SDS011;62316;48.920;2.342;2023-06-14T10:52:28;16.75;;;16.25;;
73959;SDS011;62316;48.920;2.342;2023-06-14T10:55:01;17.00;;;17.00;;
73959;SDS011;62316;48.920;2.342;2023-06-14T10:57:41;23.25;;;18.25;;
73959;SDS011;62316;48.920;2.342;2023-06-14T11:00:07;17.00;;;16.25;;
73959;SDS011;62316;48.920;2.342;2023-06-14T11:05:52;21.75;;;20.00;;
73959;SDS011;62316;48.920;2.342;2023-06-14T11:11:07;18.50;;;16.75;;
73959;SDS011;62316;48.920;2.342;2023-06-14T11:13:34;18.75;;;17.50;;
73959;SDS011;62316;48.920;2.342;2023-06-14T11:16:03;17.00;;;17.00;;
73959;SDS011;62316;48.920;2.342;2023-06-14T11:18:36;18.50;;;17.25;;
73959;SDS011;62316;48.920;2.342;2023-06-14T11:21:01;18.25;;;16.75;;
73959;SDS011;62316;48.920;2.342;2023-06-14T11:23:27;15.25;;;14.00;;
73959;SDS011;62316;48.920;2.342;2023-06-14T11:25:53;15.25;;;12.50;;
73959;SDS011;62316;48.920;2.342;2023-06-14T11:28:18;17.50;;;16.50;;
73959;SDS011;62316;48.920;2.342;2023-06-14T11:30:48;17.25;;;17.25;;
73959;SDS011;62316;48.920;2.342;2023-06-14T11:33:17;19.75;;;16.50;;
73959;SDS011;62316;48.920;2.342;2023-06-14T11:35:46;17.75;;;17.50;;
73959;SDS011;62316;48.920;2.342;2023-06-14T11:38:12;19.00;;;19.00;;
73959;SDS011;62316;48.920;2.342;2023-06-14T11:40:38;16.25;;;15.25;;
73959;SDS011;62316;48.920;2.342;2023-06-14T11:43:03;15.50;;;15.00;;
73959;SDS011;62316;48.920;2.342;2023-06-14T11:45:29;14.00;;;14.00;;
73959;SDS011;62316;48.920;2.342;2023-06-14T11:47:56;14.00;;;14.00;;
73959;SDS011;62316;48.920;2.342;2023-06-14T11:50:22;17.75;;;16.00;;
73959;SDS011;62316;48.920;2.342;2023-06-14T11:52:57;19.00;;;17.50;;
73959;SDS011;62316;48.920;2.342;2023-06-14T11:55:24;15.00;;;14.25;;
73959;SDS011;62316;48.920;2.342;2023-06-14T11:57:50;16.75;;;16.25;;
73959;SDS011;62316;48.920;2.342;2023-06-14T12:00:16;15.25;;;13.75;;
73959;SDS011;62316;48.920;2.342;2023-06-14T12:02:42;15.75;;;15.00;;
73959;SDS011;62316;48.920;2.342;2023-06-14T12:05:08;15.00;;;14.50;;
73959;SDS011;62316;48.920;2.342;2023-06-14T12:07:37;18.25;;;17.00;;
73959;SDS011;62316;48.920;2.342;2023-06-14T12:12:34;15.50;;;15.00;;
73959;SDS011;62316;48.920;2.342;2023-06-14T12:15:02;17.50;;;15.75;;
73959;SDS011;62316;48.920;2.342;2023-06-14T12:17:31;12.25;;;11.00;;
73959;SDS011;62316;48.920;2.342;2023-06-14T12:19:57;16.00;;;14.50;;
73959;SDS011;62316;48.920;2.342;2023-06-14T12:22:22;17.25;;;17.25;;
73959;SDS011;62316;48.920;2.342;2023-06-14T12:24:48;20.00;;;16.75;;
73959;SDS011;62316;48.920;2.342;2023-06-14T12:27:15;21.00;;;17.75;;
73959;SDS011;62316;48.920;2.342;2023-06-14T12:29:43;16.00;;;16.00;;
73959;SDS011;62316;48.920;2.342;2023-06-14T12:32:09;17.25;;;14.50;;
73959;SDS011;62316;48.920;2.342;2023-06-14T12:34:35;17.75;;;15.00;;
73959;SDS011;62316;48.920;2.342;2023-06-14T12:37:00;15.50;;;14.50;;
73959;SDS011;62316;48.920;2.342;2023-06-14T12:39:26;18.50;;;17.25;;
73959;SDS011;62316;48.920;2.342;2023-06-14T12:41:51;18.00;;;18.00;;
73959;SDS011;62316;48.920;2.342;2023-06-14T12:44:16;16.25;;;15.00;;
73959;SDS011;62316;48.920;2.342;2023-06-14T12:46:42;16.50;;;16.00;;
73959;SDS011;62316;48.920;2.342;2023-06-14T12:49:09;17.75;;;17.75;;
73959;SDS011;62316;48.920;2.342;2023-06-14T12:51:35;17.00;;;15.25;;
73959;SDS011;62316;48.920;2.342;2023-06-14T12:54:01;16.50;;;15.75;;
73959;SDS011;62316;48.920;2.342;2023-06-14T12:56:27;20.00;;;19.25;;
73959;SDS011;62316;48.920;2.342;2023-06-14T12:58:52;19.50;;;16.50;;
73959;SDS011;62316;48.920;2.342;2023-06-14T13:01:18;19.50;;;18.00;;
73959;SDS011;62316;48.920;2.342;2023-06-14T13:03:45;15.25;;;15.25;;
73959;SDS011;62316;48.920;2.342;2023-06-14T13:06:13;13.00;;;13.00;;
73959;SDS011;62316;48.920;2.342;2023-06-14T13:08:39;15.00;;;14.50;;
73959;SDS011;62316;48.920;2.342;2023-06-14T13:11:04;17.00;;;15.50;;
73959;SDS011;62316;48.920;2.342;2023-06-14T13:13:30;16.75;;;14.75;;
73959;SDS011;62316;48.920;2.342;2023-06-14T13:15:55;16.75;;;14.75;;
73959;SDS011;62316;48.920;2.342;2023-06-14T13:18:20;17.00;;;16.00;;
73959;SDS011;62316;48.920;2.342;2023-06-14T13:20:46;16.50;;;16.50;;
73959;SDS011;62316;48.920;2.342;2023-06-14T13:23:12;15.50;;;14.00;;
73959;SDS011;62316;48.920;2.342;2023-06-14T13:25:38;18.00;;;16.00;;
73959;SDS011;62316;48.920;2.342;2023-06-14T13:28:04;16.25;;;16.00;;
73959;SDS011;62316;48.920;2.342;2023-06-14T13:30:31;16.25;;;15.00;;
73959;SDS011;62316;48.920;2.342;2023-06-14T13:32:57;16.50;;;14.50;;
73959;SDS011;62316;48.920;2.342;2023-06-14T13:35:23;14.75;;;14.00;;
73959;SDS011;62316;48.920;2.342;2023-06-14T13:37:49;17.25;;;16.00;;
73959;SDS011;62316;48.920;2.342;2023-06-14T13:40:14;16.50;;;15.75;;
73959;SDS011;62316;48.920;2.342;2023-06-14T13:42:40;17.00;;;15.75;;
73959;SDS011;62316;48.920;2.342;2023-06-14T13:45:06;18.50;;;16.50;;
73959;SDS011;62316;48.920;2.342;2023-06-14T13:47:32;15.50;;;14.25;;
73959;SDS011;62316;48.920;2.342;2023-06-14T13:49:58;18.00;;;17.25;;
73959;SDS011;62316;48.920;2.342;2023-06-14T13:52:23;16.25;;;16.25;;
73959;SDS011;62316;48.920;2.342;2023-06-14T13:54:49;14.75;;;13.75;;
73959;SDS011;62316;48.920;2.342;2023-06-14T13:57:15;17.25;;;17.00;;
73959;SDS011;62316;48.920;2.342;2023-06-14T13:59:41;16.25;;;15.75;;
73959;SDS011;62316;48.920;2.342;2023-06-14T14:02:07;17.50;;;16.50;;
73959;SDS011;62316;48.920;2.342;2023-06-14T14:04:33;14.00;;;12.25;;
73959;SDS011;62316;48.920;2.342;2023-06-14T14:07:00;15.75;;;15.75;;
73959;SDS011;62316;48.920;2.342;2023-06-14T14:09:29;18.75;;;17.50;;
73959;SDS011;62316;48.920;2.342;2023-06-14T14:11:55;19.00;;;18.00;;
73959;SDS011;62316;48.920;2.342;2023-06-14T14:14:20;16.00;;;14.00;;
73959;SDS011;62316;48.920;2.342;2023-06-14T14:16:46;20.50;;;18.25;;
73959;SDS011;62316;48.920;2.342;2023-06-14T14:19:11;16.50;;;16.50;;
73959;SDS011;62316;48.920;2.342;2023-06-14T14:21:36;18.33;;;18.33;;
73959;SDS011;62316;48.920;2.342;2023-06-14T14:24:02;17.25;;;17.25;;
73959;SDS011;62316;48.920;2.342;2023-06-14T14:26:28;17.00;;;16.00;;
73959;SDS011;62316;48.920;2.342;2023-06-14T14:28:57;13.50;;;13.50;;
73959;SDS011;62316;48.920;2.342;2023-06-14T14:31:24;16.25;;;16.25;;
73959;SDS011;62316;48.920;2.342;2023-06-14T14:33:50;15.75;;;14.25;;
73959;SDS011;62316;48.920;2.342;2023-06-14T14:36:15;7.00;;;7.00;;
73959;SDS011;62316;48.920;2.342;2023-06-14T14:38:41;18.00;;;14.75;;
73959;SDS011;62316;48.920;2.342;2023-06-14T14:41:07;17.50;;;16.00;;
73959;SDS011;62316;48.920;2.342;2023-06-14T14:43:40;17.75;;;17.75;;
73959;SDS011;62316;48.920;2.342;2023-06-14T14:46:17;18.00;;;16.00;;
73959;SDS011;62316;48.920;2.342;2023-06-14T14:48:42;15.00;;;14.25;;
73959;SDS011;62316;48.920;2.342;2023-06-14T14:51:08;21.75;;;19.25;;
73959;SDS011;62316;48.920;2.342;2023-06-14T14:53:33;14.25;;;12.75;;
73959;SDS011;62316;48.920;2.342;2023-06-14T14:55:59;18.25;;;17.25;;
73959;SDS011;62316;48.920;2.342;2023-06-14T14:58:25;18.50;;;17.75;;
73959;SDS011;62316;48.920;2.342;2023-06-14T15:00:50;18.75;;;18.50;;
73959;SDS011;62316;48.920;2.342;2023-06-14T15:03:16;17.50;;;16.25;;
73959;SDS011;62316;48.920;2.342;2023-06-14T15:05:41;18.25;;;17.25;;
73959;SDS011;62316;48.920;2.342;2023-06-14T15:08:06;17.50;;;17.50;;
73959;SDS011;62316;48.920;2.342;2023-06-14T15:10:37;16.50;;;16.50;;
73959;SDS011;62316;48.920;2.342;2023-06-14T15:13:06;15.75;;;15.00;;
73959;SDS011;62316;48.920;2.342;2023-06-14T15:15:32;17.25;;;16.25;;
73959;SDS011;62316;48.920;2.342;2023-06-14T15:17:58;22.75;;;19.75;;
73959;SDS011;62316;48.920;2.342;2023-06-14T15:20:25;17.75;;;17.75;;
73959;SDS011;62316;48.920;2.342;2023-06-14T15:22:50;19.75;;;19.75;;
73959;SDS011;62316;48.920;2.342;2023-06-14T15:25:16;18.75;;;18.00;;
73959;SDS011;62316;48.920;2.342;2023-06-14T15:27:41;19.75;;;17.00;;
73959;SDS011;62316;48.920;2.342;2023-06-14T15:30:07;16.00;;;15.25;;
73959;SDS011;62316;48.920;2.342;2023-06-14T15:32:33;20.25;;;19.00;;
73959;SDS011;62316;48.920;2.342;2023-06-14T15:34:58;22.00;;;19.00;;
73959;SDS011;62316;48.920;2.342;2023-06-14T15:37:24;16.25;;;14.25;;
73959;SDS011;62316;48.920;2.342;2023-06-14T15:39:49;16.25;;;15.75;;
73959;SDS011;62316;48.920;2.342;2023-06-14T15:42:15;18.25;;;17.25;;
73959;SDS011;62316;48.920;2.342;2023-06-14T15:44:40;18.00;;;17.75;;
73959;SDS011;62316;48.920;2.342;2023-06-14T15:47:07;17.00;;;17.00;;
73959;SDS011;62316;48.920;2.342;2023-06-14T15:49:36;18.00;;;17.50;;
73959;SDS011;62316;48.920;2.342;2023-06-14T15:52:01;19.50;;;17.75;;
73959;SDS011;62316;48.920;2.342;2023-06-14T15:54:27;20.00;;;18.50;;
73959;SDS011;62316;48.920;2.342;2023-06-14T15:56:52;15.00;;;15.00;;
73959;SDS011;62316;48.920;2.342;2023-06-14T15:59:17;15.25;;;14.25;;
73959;SDS011;62316;48.920;2.342;2023-06-14T16:01:43;20.25;;;19.25;;
73959;SDS011;62316;48.920;2.342;2023-06-14T16:04:08;18.50;;;18.50;;
73959;SDS011;62316;48.920;2.342;2023-06-14T16:06:34;19.00;;;18.25;;
73959;SDS011;62316;48.920;2.342;2023-06-14T16:09:01;18.25;;;18.25;;
73959;SDS011;62316;48.920;2.342;2023-06-14T16:11:27;18.25;;;16.25;;
73959;SDS011;62316;48.920;2.342;2023-06-14T16:13:53;18.50;;;18.00;;
73959;SDS011;62316;48.920;2.342;2023-06-14T16:16:20;19.00;;;18.50;;
73959;SDS011;62316;48.920;2.342;2023-06-14T16:18:46;23.00;;;20.25;;
73959;SDS011;62316;48.920;2.342;2023-06-14T16:21:11;22.75;;;20.75;;
73959;SDS011;62316;48.920;2.342;2023-06-14T16:23:37;19.25;;;18.25;;
73959;SDS011;62316;48.920;2.342;2023-06-14T16:26:02;17.00;;;16.00;;
73959;SDS011;62316;48.920;2.342;2023-06-14T16:28:29;18.50;;;17.75;;
73959;SDS011;62316;48.920;2.342;2023-06-14T16:30:56;16.00;;;15.25;;
73959;SDS011;62316;48.920;2.342;2023-06-14T16:33:21;18.75;;;18.75;;
73959;SDS011;62316;48.920;2.342;2023-06-14T16:35:47;19.50;;;18.00;;
73959;SDS011;62316;48.920;2.342;2023-06-14T16:38:12;16.75;;;16.75;;
73959;SDS011;62316;48.920;2.342;2023-06-14T16:40:38;17.25;;;16.50;;
73959;SDS011;62316;48.920;2.342;2023-06-14T16:43:03;16.75;;;15.50;;
73959;SDS011;62316;48.920;2.342;2023-06-14T16:45:29;19.50;;;17.75;;
73959;SDS011;62316;48.920;2.342;2023-06-14T16:47:54;15.50;;;15.50;;
73959;SDS011;62316;48.920;2.342;2023-06-14T16:50:19;16.50;;;16.50;;
73959;SDS011;62316;48.920;2.342;2023-06-14T16:52:45;17.75;;;17.75;;
73959;SDS011;62316;48.920;2.342;2023-06-14T16:55:10;18.00;;;16.50;;
73959;SDS011;62316;48.920;2.342;2023-06-14T16:57:37;15.75;;;15.75;;
73959;SDS011;62316;48.920;2.342;2023-06-14T17:00:03;17.00;;;16.00;;
73959;SDS011;62316;48.920;2.342;2023-06-14T17:02:28;15.75;;;15.75;;
73959;SDS011;62316;48.920;2.342;2023-06-14T17:04:54;21.00;;;19.25;;
73959;SDS011;62316;48.920;2.342;2023-06-14T17:07:19;16.00;;;15.25;;
73959;SDS011;62316;48.920;2.342;2023-06-14T17:09:45;11.50;;;11.50;;
73959;SDS011;62316;48.920;2.342;2023-06-14T17:12:11;15.50;;;15.50;;
73959;SDS011;62316;48.920;2.342;2023-06-14T17:14:36;15.50;;;15.00;;
73959;SDS011;62316;48.920;2.342;2023-06-14T17:17:02;16.50;;;15.25;;
73959;SDS011;62316;48.920;2.342;2023-06-14T17:19:28;20.25;;;20.25;;
73959;SDS011;62316;48.920;2.342;2023-06-14T17:21:53;14.25;;;14.25;;
73959;SDS011;62316;48.920;2.342;2023-06-14T17:24:19;17.75;;;17.00;;
73959;SDS011;62316;48.920;2.342;2023-06-14T17:26:45;17.00;;;17.00;;
73959;SDS011;62316;48.920;2.342;2023-06-14T17:29:11;18.00;;;16.75;;
73959;SDS011;62316;48.920;2.342;2023-06-14T17:31:36;15.50;;;15.50;;
73959;SDS011;62316;48.920;2.342;2023-06-14T17:34:02;20.50;;;19.50;;
73959;SDS011;62316;48.920;2.342;2023-06-14T17:36:27;15.50;;;15.25;;
73959;SDS011;62316;48.920;2.342;2023-06-14T17:38:53;16.75;;;16.50;;
73959;SDS011;62316;48.920;2.342;2023-06-14T17:41:19;15.25;;;13.25;;
73959;SDS011;62316;48.920;2.342;2023-06-14T17:43:45;18.75;;;17.75;;
73959;SDS011;62316;48.920;2.342;2023-06-14T17:46:10;18.50;;;17.25;;
73959;SDS011;62316;48.920;2.342;2023-06-14T17:48:36;18.25;;;17.25;;
73959;SDS011;62316;48.920;2.342;2023-06-14T17:51:02;16.25;;;16.00;;
73959;SDS011;62316;48.920;2.342;2023-06-14T17:53:28;17.25;;;15.75;;
73959;SDS011;62316;48.920;2.342;2023-06-14T17:55:53;19.75;;;17.50;;
73959;SDS011;62316;48.920;2.342;2023-06-14T17:58:19;15.75;;;15.75;;
73959;SDS011;62316;48.920;2.342;2023-06-14T18:00:49;15.50;;;15.50;;
73959;SDS011;62316;48.920;2.342;2023-06-14T18:03:15;18.75;;;17.75;;
73959;SDS011;62316;48.920;2.342;2023-06-14T18:05:41;19.25;;;17.00;;
73959;SDS011;62316;48.920;2.342;2023-06-14T18:08:07;15.25;;;14.50;;
73959;SDS011;62316;48.920;2.342;2023-06-14T18:10:33;15.75;;;14.50;;
73959;SDS011;62316;48.920;2.342;2023-06-14T18:12:59;16.50;;;16.50;;
73959;SDS011;62316;48.920;2.342;2023-06-14T18:15:25;23.25;;;19.50;;
73959;SDS011;62316;48.920;2.342;2023-06-14T18:17:51;17.75;;;16.75;;
73959;SDS011;62316;48.920;2.342;2023-06-14T18:20:20;17.75;;;16.00;;
73959;SDS011;62316;48.920;2.342;2023-06-14T18:22:46;15.50;;;14.50;;
73959;SDS011;62316;48.920;2.342;2023-06-14T18:25:13;18.50;;;15.50;;
73959;SDS011;62316;48.920;2.342;2023-06-14T18:27:43;16.75;;;15.50;;
73959;SDS011;62316;48.920;2.342;2023-06-14T18:30:10;15.50;;;14.75;;
73959;SDS011;62316;48.920;2.342;2023-06-14T18:32:36;15.50;;;14.50;;
73959;SDS011;62316;48.920;2.342;2023-06-14T18:35:02;16.00;;;16.00;;
73959;SDS011;62316;48.920;2.342;2023-06-14T18:37:27;16.00;;;16.00;;
73959;SDS011;62316;48.920;2.342;2023-06-14T18:39:53;16.00;;;16.00;;